Terminal Aerodrome Forecast
Issued by NWS

Home | Current Version | Previous Version | Text Only | Print | Product List | Glossary Off
Versions: 1 2 3 4 5 6 7 8 9 10 11 12 13 14 15 16 17 18 19 20 21 22

000
FTUS42 KMHX 171100
TAFISO
TAF
KISO 171140Z 1712/1812 21003KT P6SM SCT010
      TEMPO 1712/1713 3SM BR SCT005
     FM171300 25007KT P6SM SCT050
     FM180900 00000KT 4SM BR BKN250
      AMD LTD TO CLD VIS AND WIND=

USA.gov is the U.S. government's official web portal to all federal, state and local government web resources and services.